sensor_id;sensor_type;location;lat;lon;timestamp;pressure;altitude;pressure_sealevel;temperature;humidity
64354;BME280;50681;53.334;-6.536;2023-05-16T00:01:37;102117.44;;;12.50;100.00
64354;BME280;50681;53.334;-6.536;2023-05-16T00:04:03;102109.31;;;12.45;100.00
64354;BME280;50681;53.334;-6.536;2023-05-16T00:06:30;102123.91;;;12.39;100.00
64354;BME280;50681;53.334;-6.536;2023-05-16T00:08:56;102121.66;;;12.26;100.00
64354;BME280;50681;53.334;-6.536;2023-05-16T00:11:21;102121.91;;;12.19;100.00
64354;BME280;50681;53.334;-6.536;2023-05-16T00:13:47;102119.41;;;12.12;100.00
64354;BME280;50681;53.334;-6.536;2023-05-16T00:16:13;102111.25;;;12.07;100.00
64354;BME280;50681;53.334;-6.536;2023-05-16T00:18:39;102120.91;;;11.98;100.00
64354;BME280;50681;53.334;-6.536;2023-05-16T00:21:05;102120.97;;;12.03;100.00
64354;BME280;50681;53.334;-6.536;2023-05-16T00:23:31;102117.09;;;11.94;100.00
64354;BME280;50681;53.334;-6.536;2023-05-16T00:25:56;102113.81;;;11.91;100.00
64354;BME280;50681;53.334;-6.536;2023-05-16T00:28:22;102107.28;;;12.20;100.00
64354;BME280;50681;53.334;-6.536;2023-05-16T00:30:47;102110.00;;;12.20;100.00
64354;BME280;50681;53.334;-6.536;2023-05-16T00:33:13;102109.94;;;12.10;100.00
64354;BME280;50681;53.334;-6.536;2023-05-16T00:35:38;102103.69;;;12.09;100.00
64354;BME280;50681;53.334;-6.536;2023-05-16T00:38:04;102113.97;;;12.07;100.00
64354;BME280;50681;53.334;-6.536;2023-05-16T00:40:29;102106.34;;;12.04;100.00
64354;BME280;50681;53.334;-6.536;2023-05-16T00:42:55;102106.94;;;12.11;100.00
64354;BME280;50681;53.334;-6.536;2023-05-16T00:45:22;102101.03;;;12.19;100.00
64354;BME280;50681;53.334;-6.536;2023-05-16T00:47:47;102100.94;;;12.04;100.00
64354;BME280;50681;53.334;-6.536;2023-05-16T00:50:13;102102.59;;;12.10;100.00
64354;BME280;50681;53.334;-6.536;2023-05-16T00:52:38;102100.41;;;12.07;100.00
64354;BME280;50681;53.334;-6.536;2023-05-16T00:55:05;102108.03;;;12.10;100.00
64354;BME280;50681;53.334;-6.536;2023-05-16T00:57:31;102108.19;;;11.98;100.00
64354;BME280;50681;53.334;-6.536;2023-05-16T00:59:56;102109.75;;;11.89;100.00
64354;BME280;50681;53.334;-6.536;2023-05-16T01:02:22;102101.47;;;11.68;100.00
64354;BME280;50681;53.334;-6.536;2023-05-16T01:04:48;102102.34;;;11.79;100.00
64354;BME280;50681;53.334;-6.536;2023-05-16T01:07:15;102112.34;;;11.73;100.00
64354;BME280;50681;53.334;-6.536;2023-05-16T01:09:41;102108.81;;;11.73;100.00
64354;BME280;50681;53.334;-6.536;2023-05-16T01:12:16;102101.88;;;11.87;100.00
64354;BME280;50681;53.334;-6.536;2023-05-16T01:15:07;102108.88;;;11.83;100.00
64354;BME280;50681;53.334;-6.536;2023-05-16T01:20:35;102091.97;;;11.66;100.00
64354;BME280;50681;53.334;-6.536;2023-05-16T01:23:33;102089.03;;;11.67;100.00
64354;BME280;50681;53.334;-6.536;2023-05-16T01:26:24;102086.91;;;11.74;100.00
64354;BME280;50681;53.334;-6.536;2023-05-16T01:28:51;102082.13;;;11.54;100.00
64354;BME280;50681;53.334;-6.536;2023-05-16T01:31:17;102091.25;;;11.43;100.00
64354;BME280;50681;53.334;-6.536;2023-05-16T01:33:43;102093.09;;;11.37;100.00
64354;BME280;50681;53.334;-6.536;2023-05-16T01:39:14;102086.75;;;11.54;100.00
64354;BME280;50681;53.334;-6.536;2023-05-16T01:45:15;102099.97;;;11.50;100.00
64354;BME280;50681;53.334;-6.536;2023-05-16T01:47:46;102093.91;;;11.38;100.00
64354;BME280;50681;53.334;-6.536;2023-05-16T01:50:15;102087.88;;;11.30;100.00
64354;BME280;50681;53.334;-6.536;2023-05-16T01:52:49;102090.28;;;11.27;100.00
64354;BME280;50681;53.334;-6.536;2023-05-16T01:55:23;102093.19;;;11.20;100.00
64354;BME280;50681;53.334;-6.536;2023-05-16T01:57:54;102092.88;;;10.89;100.00
64354;BME280;50681;53.334;-6.536;2023-05-16T02:00:20;102092.56;;;10.85;100.00
64354;BME280;50681;53.334;-6.536;2023-05-16T02:02:46;102097.97;;;10.85;100.00
64354;BME280;50681;53.334;-6.536;2023-05-16T02:05:11;102105.75;;;10.82;100.00
64354;BME280;50681;53.334;-6.536;2023-05-16T02:07:37;102090.44;;;10.87;100.00
64354;BME280;50681;53.334;-6.536;2023-05-16T02:10:03;102096.47;;;10.72;100.00
64354;BME280;50681;53.334;-6.536;2023-05-16T02:12:29;102104.13;;;11.03;100.00
64354;BME280;50681;53.334;-6.536;2023-05-16T02:14:55;102101.84;;;10.72;100.00
64354;BME280;50681;53.334;-6.536;2023-05-16T02:17:20;102098.66;;;10.76;100.00
64354;BME280;50681;53.334;-6.536;2023-05-16T02:19:46;102095.66;;;10.72;100.00
64354;BME280;50681;53.334;-6.536;2023-05-16T02:22:11;102100.72;;;10.68;100.00
64354;BME280;50681;53.334;-6.536;2023-05-16T02:24:36;102097.22;;;10.68;100.00
64354;BME280;50681;53.334;-6.536;2023-05-16T02:27:02;102089.06;;;10.63;100.00
64354;BME280;50681;53.334;-6.536;2023-05-16T02:29:28;102095.78;;;10.60;100.00
64354;BME280;50681;53.334;-6.536;2023-05-16T02:31:53;102100.38;;;10.59;100.00
64354;BME280;50681;53.334;-6.536;2023-05-16T02:34:20;102092.31;;;10.65;100.00
64354;BME280;50681;53.334;-6.536;2023-05-16T02:36:45;102096.22;;;10.52;100.00
64354;BME280;50681;53.334;-6.536;2023-05-16T02:39:10;102092.41;;;10.48;100.00
64354;BME280;50681;53.334;-6.536;2023-05-16T02:41:36;102092.81;;;10.39;100.00
64354;BME280;50681;53.334;-6.536;2023-05-16T02:44:01;102091.03;;;10.28;100.00
64354;BME280;50681;53.334;-6.536;2023-05-16T02:46:29;102095.25;;;10.41;100.00
64354;BME280;50681;53.334;-6.536;2023-05-16T02:48:59;102087.16;;;10.41;100.00
64354;BME280;50681;53.334;-6.536;2023-05-16T02:51:27;102086.84;;;10.37;100.00
64354;BME280;50681;53.334;-6.536;2023-05-16T02:53:53;102081.78;;;10.24;100.00
64354;BME280;50681;53.334;-6.536;2023-05-16T02:56:22;102080.22;;;10.28;100.00
64354;BME280;50681;53.334;-6.536;2023-05-16T02:58:49;102091.25;;;10.26;100.00
64354;BME280;50681;53.334;-6.536;2023-05-16T03:01:15;102093.09;;;10.21;100.00
64354;BME280;50681;53.334;-6.536;2023-05-16T03:03:40;102091.44;;;10.20;100.00
64354;BME280;50681;53.334;-6.536;2023-05-16T03:06:06;102088.91;;;10.13;100.00
64354;BME280;50681;53.334;-6.536;2023-05-16T03:08:32;102099.91;;;10.06;100.00
64354;BME280;50681;53.334;-6.536;2023-05-16T03:10:57;102090.66;;;10.02;100.00
64354;BME280;50681;53.334;-6.536;2023-05-16T03:13:23;102087.22;;;10.07;100.00
64354;BME280;50681;53.334;-6.536;2023-05-16T03:15:48;102086.91;;;10.03;100.00
64354;BME280;50681;53.334;-6.536;2023-05-16T03:18:15;102100.78;;;10.12;100.00
64354;BME280;50681;53.334;-6.536;2023-05-16T03:20:40;102090.31;;;9.98;100.00
64354;BME280;50681;53.334;-6.536;2023-05-16T03:23:06;102099.97;;;9.94;100.00
64354;BME280;50681;53.334;-6.536;2023-05-16T03:25:35;102096.94;;;10.08;100.00
64354;BME280;50681;53.334;-6.536;2023-05-16T03:28:04;102102.94;;;9.93;100.00
64354;BME280;50681;53.334;-6.536;2023-05-16T03:30:31;102094.69;;;9.82;100.00
64354;BME280;50681;53.334;-6.536;2023-05-16T03:32:57;102109.41;;;9.92;100.00
64354;BME280;50681;53.334;-6.536;2023-05-16T03:35:23;102100.13;;;10.22;100.00
64354;BME280;50681;53.334;-6.536;2023-05-16T03:37:49;102102.94;;;9.93;100.00
64354;BME280;50681;53.334;-6.536;2023-05-16T03:40:14;102098.53;;;9.87;100.00
64354;BME280;50681;53.334;-6.536;2023-05-16T03:42:40;102094.59;;;9.77;100.00
64354;BME280;50681;53.334;-6.536;2023-05-16T03:45:07;102091.81;;;9.89;100.00
64354;BME280;50681;53.334;-6.536;2023-05-16T03:47:33;102102.28;;;9.85;100.00
64354;BME280;50681;53.334;-6.536;2023-05-16T03:49:59;102090.75;;;9.73;100.00
64354;BME280;50681;53.334;-6.536;2023-05-16T03:52:24;102098.84;;;9.73;100.00
64354;BME280;50681;53.334;-6.536;2023-05-16T03:54:50;102107.03;;;9.78;100.00
64354;BME280;50681;53.334;-6.536;2023-05-16T03:57:15;102112.25;;;9.68;100.00
64354;BME280;50681;53.334;-6.536;2023-05-16T03:59:41;102103.41;;;9.73;100.00
64354;BME280;50681;53.334;-6.536;2023-05-16T04:02:06;102112.56;;;9.71;100.00
64354;BME280;50681;53.334;-6.536;2023-05-16T04:04:32;102101.47;;;9.68;100.00
64354;BME280;50681;53.334;-6.536;2023-05-16T04:06:57;102115.13;;;9.78;100.00
64354;BME280;50681;53.334;-6.536;2023-05-16T04:09:22;102115.44;;;9.82;100.00
64354;BME280;50681;53.334;-6.536;2023-05-16T04:11:48;102116.97;;;9.78;100.00
64354;BME280;50681;53.334;-6.536;2023-05-16T04:14:14;102107.75;;;9.74;100.00
64354;BME280;50681;53.334;-6.536;2023-05-16T04:16:40;102106.59;;;9.69;100.00
64354;BME280;50681;53.334;-6.536;2023-05-16T04:19:06;102119.38;;;9.74;100.00
64354;BME280;50681;53.334;-6.536;2023-05-16T04:21:31;102110.63;;;9.67;100.00
64354;BME280;50681;53.334;-6.536;2023-05-16T04:23:57;102101.88;;;9.60;100.00
64354;BME280;50681;53.334;-6.536;2023-05-16T04:26:23;102111.59;;;9.61;100.00
64354;BME280;50681;53.334;-6.536;2023-05-16T04:28:49;102113.97;;;9.74;100.00
64354;BME280;50681;53.334;-6.536;2023-05-16T04:31:14;102109.56;;;9.68;100.00
64354;BME280;50681;53.334;-6.536;2023-05-16T04:33:40;102108.97;;;9.66;100.00
64354;BME280;50681;53.334;-6.536;2023-05-16T04:36:06;102115.59;;;9.75;100.00
64354;BME280;50681;53.334;-6.536;2023-05-16T04:38:32;102113.88;;;9.69;100.00
64354;BME280;50681;53.334;-6.536;2023-05-16T04:40:57;102124.41;;;9.70;100.00
64354;BME280;50681;53.334;-6.536;2023-05-16T04:43:23;102120.16;;;9.75;100.00
64354;BME280;50681;53.334;-6.536;2023-05-16T04:45:48;102121.22;;;9.74;100.00
64354;BME280;50681;53.334;-6.536;2023-05-16T04:48:15;102112.09;;;9.58;100.00
64354;BME280;50681;53.334;-6.536;2023-05-16T04:50:40;102124.25;;;9.60;100.00
64354;BME280;50681;53.334;-6.536;2023-05-16T04:53:06;102126.63;;;9.56;100.00
64354;BME280;50681;53.334;-6.536;2023-05-16T04:55:38;102125.97;;;9.66;100.00
64354;BME280;50681;53.334;-6.536;2023-05-16T04:58:04;102124.13;;;9.38;100.00
64354;BME280;50681;53.334;-6.536;2023-05-16T05:00:29;102126.63;;;9.56;100.00
64354;BME280;50681;53.334;-6.536;2023-05-16T05:02:54;102131.53;;;9.60;100.00
64354;BME280;50681;53.334;-6.536;2023-05-16T05:05:20;102124.81;;;9.62;100.00
64354;BME280;50681;53.334;-6.536;2023-05-16T05:07:45;102131.13;;;9.68;100.00
64354;BME280;50681;53.334;-6.536;2023-05-16T05:10:11;102130.72;;;9.76;100.00
64354;BME280;50681;53.334;-6.536;2023-05-16T05:12:36;102130.16;;;9.91;100.00
64354;BME280;50681;53.334;-6.536;2023-05-16T05:15:03;102136.28;;;10.04;100.00
64354;BME280;50681;53.334;-6.536;2023-05-16T05:17:28;102139.22;;;10.02;100.00
64354;BME280;50681;53.334;-6.536;2023-05-16T05:19:54;102139.22;;;10.02;100.00
64354;BME280;50681;53.334;-6.536;2023-05-16T05:22:19;102133.66;;;10.09;100.00
64354;BME280;50681;53.334;-6.536;2023-05-16T05:24:45;102132.03;;;10.08;100.00
64354;BME280;50681;53.334;-6.536;2023-05-16T05:27:11;102146.34;;;10.08;100.00
64354;BME280;50681;53.334;-6.536;2023-05-16T05:29:36;102130.16;;;10.08;100.00
64354;BME280;50681;53.334;-6.536;2023-05-16T05:32:02;102137.25;;;10.14;100.00
64354;BME280;50681;53.334;-6.536;2023-05-16T05:34:27;102143.88;;;10.07;100.00
64354;BME280;50681;53.334;-6.536;2023-05-16T05:36:53;102147.38;;;10.24;100.00
64354;BME280;50681;53.334;-6.536;2023-05-16T05:39:18;102150.34;;;10.23;100.00
64354;BME280;50681;53.334;-6.536;2023-05-16T05:41:44;102172.16;;;10.38;100.00
64354;BME280;50681;53.334;-6.536;2023-05-16T05:44:09;102156.56;;;10.40;100.00
64354;BME280;50681;53.334;-6.536;2023-05-16T05:46:35;102159.84;;;10.42;100.00
64354;BME280;50681;53.334;-6.536;2023-05-16T05:49:01;102159.84;;;10.42;100.00
64354;BME280;50681;53.334;-6.536;2023-05-16T05:51:26;102163.31;;;10.60;100.00
64354;BME280;50681;53.334;-6.536;2023-05-16T05:53:52;102154.66;;;10.58;100.00
64354;BME280;50681;53.334;-6.536;2023-05-16T05:56:18;102156.97;;;10.71;100.00
64354;BME280;50681;53.334;-6.536;2023-05-16T05:58:45;102160.56;;;10.77;100.00
64354;BME280;50681;53.334;-6.536;2023-05-16T06:01:10;102164.81;;;10.95;100.00
64354;BME280;50681;53.334;-6.536;2023-05-16T06:03:36;102173.06;;;11.06;100.00
64354;BME280;50681;53.334;-6.536;2023-05-16T06:06:02;102182.34;;;11.15;100.00
64354;BME280;50681;53.334;-6.536;2023-05-16T06:08:28;102188.25;;;11.12;100.00
64354;BME280;50681;53.334;-6.536;2023-05-16T06:10:53;102184.19;;;11.09;100.00
64354;BME280;50681;53.334;-6.536;2023-05-16T06:13:19;102187.41;;;11.06;100.00
64354;BME280;50681;53.334;-6.536;2023-05-16T06:15:51;102184.53;;;11.40;100.00
64354;BME280;50681;53.334;-6.536;2023-05-16T06:18:17;102183.19;;;11.43;100.00
64354;BME280;50681;53.334;-6.536;2023-05-16T06:20:43;102190.28;;;11.49;100.00
64354;BME280;50681;53.334;-6.536;2023-05-16T06:23:08;102189.31;;;11.33;100.00
64354;BME280;50681;53.334;-6.536;2023-05-16T06:25:33;102195.66;;;11.44;100.00
64354;BME280;50681;53.334;-6.536;2023-05-16T06:27:59;102201.44;;;11.30;100.00
64354;BME280;50681;53.334;-6.536;2023-05-16T06:30:24;102206.75;;;11.42;100.00
64354;BME280;50681;53.334;-6.536;2023-05-16T06:32:50;102198.75;;;11.30;100.00
64354;BME280;50681;53.334;-6.536;2023-05-16T06:35:15;102207.13;;;11.56;100.00
64354;BME280;50681;53.334;-6.536;2023-05-16T06:37:41;102215.34;;;11.67;100.00
64354;BME280;50681;53.334;-6.536;2023-05-16T06:40:07;102211.25;;;11.91;100.00
64354;BME280;50681;53.334;-6.536;2023-05-16T06:42:32;102204.47;;;11.89;100.00
64354;BME280;50681;53.334;-6.536;2023-05-16T06:44:57;102215.34;;;11.94;100.00
64354;BME280;50681;53.334;-6.536;2023-05-16T06:47:23;102214.78;;;12.19;100.00
64354;BME280;50681;53.334;-6.536;2023-05-16T06:49:49;102209.59;;;12.13;100.00
64354;BME280;50681;53.334;-6.536;2023-05-16T06:52:15;102219.16;;;12.26;100.00
64354;BME280;50681;53.334;-6.536;2023-05-16T06:54:40;102205.41;;;12.32;100.00
64354;BME280;50681;53.334;-6.536;2023-05-16T06:57:06;102221.78;;;12.53;100.00
64354;BME280;50681;53.334;-6.536;2023-05-16T06:59:33;102224.56;;;12.63;100.00
64354;BME280;50681;53.334;-6.536;2023-05-16T07:01:59;102227.09;;;12.81;100.00
64354;BME280;50681;53.334;-6.536;2023-05-16T07:04:25;102228.66;;;12.71;100.00
64354;BME280;50681;53.334;-6.536;2023-05-16T07:06:51;102227.91;;;12.76;100.00
64354;BME280;50681;53.334;-6.536;2023-05-16T07:09:17;102242.22;;;13.25;100.00
64354;BME280;50681;53.334;-6.536;2023-05-16T07:11:42;102237.09;;;13.33;100.00
64354;BME280;50681;53.334;-6.536;2023-05-16T07:14:08;102232.81;;;13.53;100.00
64354;BME280;50681;53.334;-6.536;2023-05-16T07:16:34;102242.13;;;13.83;100.00
64354;BME280;50681;53.334;-6.536;2023-05-16T07:18:59;102239.41;;;13.88;100.00
64354;BME280;50681;53.334;-6.536;2023-05-16T07:21:25;102246.69;;;13.72;100.00
64354;BME280;50681;53.334;-6.536;2023-05-16T07:23:51;102244.25;;;13.71;100.00
64354;BME280;50681;53.334;-6.536;2023-05-16T07:26:16;102248.81;;;13.55;100.00
64354;BME280;50681;53.334;-6.536;2023-05-16T07:28:42;102228.66;;;13.25;100.00
64354;BME280;50681;53.334;-6.536;2023-05-16T07:31:07;102239.31;;;13.42;100.00
64354;BME280;50681;53.334;-6.536;2023-05-16T07:33:33;102239.03;;;13.48;100.00
64354;BME280;50681;53.334;-6.536;2023-05-16T07:35:58;102244.75;;;13.47;100.00
64354;BME280;50681;53.334;-6.536;2023-05-16T07:38:24;102237.44;;;13.63;100.00
64354;BME280;50681;53.334;-6.536;2023-05-16T07:40:49;102235.41;;;13.17;100.00
64354;BME280;50681;53.334;-6.536;2023-05-16T07:43:15;102237.97;;;13.60;100.00
64354;BME280;50681;53.334;-6.536;2023-05-16T07:45:40;102227.16;;;13.80;100.00
64354;BME280;50681;53.334;-6.536;2023-05-16T07:48:06;102230.44;;;14.03;100.00
64354;BME280;50681;53.334;-6.536;2023-05-16T07:50:32;102238.03;;;14.06;100.00
64354;BME280;50681;53.334;-6.536;2023-05-16T07:52:57;102242.66;;;14.01;100.00
64354;BME280;50681;53.334;-6.536;2023-05-16T07:55:23;102233.97;;;13.99;100.00
64354;BME280;50681;53.334;-6.536;2023-05-16T07:57:49;102226.09;;;14.28;100.00
64354;BME280;50681;53.334;-6.536;2023-05-16T08:00:16;102225.81;;;14.35;100.00
64354;BME280;50681;53.334;-6.536;2023-05-16T08:02:41;102230.41;;;14.45;100.00
64354;BME280;50681;53.334;-6.536;2023-05-16T08:05:07;102228.56;;;14.19;100.00
64354;BME280;50681;53.334;-6.536;2023-05-16T08:07:33;102230.72;;;14.17;100.00
64354;BME280;50681;53.334;-6.536;2023-05-16T08:09:58;102227.44;;;14.46;100.00
64354;BME280;50681;53.334;-6.536;2023-05-16T08:12:24;102223.59;;;14.68;100.00
64354;BME280;50681;53.334;-6.536;2023-05-16T08:14:51;102222.22;;;14.81;100.00
64354;BME280;50681;53.334;-6.536;2023-05-16T08:17:16;102221.53;;;15.15;100.00
64354;BME280;50681;53.334;-6.536;2023-05-16T08:19:42;102220.94;;;15.28;100.00
64354;BME280;50681;53.334;-6.536;2023-05-16T08:22:08;102224.44;;;15.34;100.00
64354;BME280;50681;53.334;-6.536;2023-05-16T08:24:34;102229.75;;;15.05;100.00
64354;BME280;50681;53.334;-6.536;2023-05-16T08:27:00;102220.09;;;15.33;100.00
64354;BME280;50681;53.334;-6.536;2023-05-16T08:29:25;102236.50;;;15.18;100.00
64354;BME280;50681;53.334;-6.536;2023-05-16T08:31:51;102237.78;;;15.31;100.00
64354;BME280;50681;53.334;-6.536;2023-05-16T08:34:16;102237.72;;;15.46;100.00
64354;BME280;50681;53.334;-6.536;2023-05-16T08:36:42;102224.50;;;15.24;100.00
64354;BME280;50681;53.334;-6.536;2023-05-16T08:39:07;102238.41;;;15.67;100.00
64354;BME280;50681;53.334;-6.536;2023-05-16T08:41:36;102241.16;;;15.62;100.00
64354;BME280;50681;53.334;-6.536;2023-05-16T08:44:01;102232.84;;;15.88;100.00
64354;BME280;50681;53.334;-6.536;2023-05-16T08:46:28;102238.00;;;15.84;100.00
64354;BME280;50681;53.334;-6.536;2023-05-16T08:48:59;102234.28;;;16.10;100.00
64354;BME280;50681;53.334;-6.536;2023-05-16T08:51:27;102236.78;;;16.06;100.00
64354;BME280;50681;53.334;-6.536;2023-05-16T08:54:06;102236.00;;;16.59;100.00
64354;BME280;50681;53.334;-6.536;2023-05-16T08:56:33;102231.28;;;16.41;100.00
64354;BME280;50681;53.334;-6.536;2023-05-16T08:59:00;102224.63;;;16.52;100.00
64354;BME280;50681;53.334;-6.536;2023-05-16T09:01:26;102232.16;;;16.36;100.00
64354;BME280;50681;53.334;-6.536;2023-05-16T09:03:52;102223.06;;;16.46;100.00
64354;BME280;50681;53.334;-6.536;2023-05-16T09:06:17;102221.09;;;16.52;100.00
64354;BME280;50681;53.334;-6.536;2023-05-16T09:08:43;102227.41;;;16.47;100.00
64354;BME280;50681;53.334;-6.536;2023-05-16T09:11:09;102223.16;;;16.65;100.00
64354;BME280;50681;53.334;-6.536;2023-05-16T09:13:37;102226.41;;;17.16;100.00
64354;BME280;50681;53.334;-6.536;2023-05-16T09:18:34;102215.94;;;16.50;100.00
64354;BME280;50681;53.334;-6.536;2023-05-16T09:21:02;102210.47;;;16.50;100.00
64354;BME280;50681;53.334;-6.536;2023-05-16T09:23:28;102218.41;;;17.00;100.00
64354;BME280;50681;53.334;-6.536;2023-05-16T09:25:56;102207.56;;;17.14;100.00
64354;BME280;50681;53.334;-6.536;2023-05-16T09:28:22;102215.72;;;16.95;100.00
64354;BME280;50681;53.334;-6.536;2023-05-16T09:30:51;102224.59;;;17.06;100.00
64354;BME280;50681;53.334;-6.536;2023-05-16T09:33:17;102222.81;;;17.40;100.00
64354;BME280;50681;53.334;-6.536;2023-05-16T09:35:42;102218.13;;;17.40;100.00
64354;BME280;50681;53.334;-6.536;2023-05-16T09:38:15;102212.31;;;17.28;100.00
64354;BME280;50681;53.334;-6.536;2023-05-16T09:40:41;102216.31;;;17.36;100.00
64354;BME280;50681;53.334;-6.536;2023-05-16T09:43:07;102217.31;;;17.59;100.00
64354;BME280;50681;53.334;-6.536;2023-05-16T09:45:34;102228.06;;;18.07;100.00
64354;BME280;50681;53.334;-6.536;2023-05-16T09:48:05;102225.88;;;17.71;100.00
64354;BME280;50681;53.334;-6.536;2023-05-16T09:50:35;102230.72;;;18.13;100.00
64354;BME280;50681;53.334;-6.536;2023-05-16T09:53:02;102219.34;;;17.53;100.00
64354;BME280;50681;53.334;-6.536;2023-05-16T09:55:28;102224.25;;;17.32;100.00
64354;BME280;50681;53.334;-6.536;2023-05-16T09:57:54;102220.53;;;17.99;100.00
64354;BME280;50681;53.334;-6.536;2023-05-16T10:00:20;102223.00;;;18.01;100.00
64354;BME280;50681;53.334;-6.536;2023-05-16T10:02:46;102224.22;;;18.09;100.00
64354;BME280;50681;53.334;-6.536;2023-05-16T10:05:12;102227.28;;;18.07;100.00
64354;BME280;50681;53.334;-6.536;2023-05-16T10:07:38;102221.03;;;18.20;100.00
64354;BME280;50681;53.334;-6.536;2023-05-16T10:10:07;102221.97;;;18.58;100.00
64354;BME280;50681;53.334;-6.536;2023-05-16T10:12:34;102224.47;;;18.26;100.00
64354;BME280;50681;53.334;-6.536;2023-05-16T10:15:02;102224.63;;;18.77;100.00
64354;BME280;50681;53.334;-6.536;2023-05-16T10:17:35;102225.31;;;18.83;100.00
64354;BME280;50681;53.334;-6.536;2023-05-16T10:20:05;102231.13;;;18.20;100.00
64354;BME280;50681;53.334;-6.536;2023-05-16T10:22:34;102222.88;;;18.39;100.00
64354;BME280;50681;53.334;-6.536;2023-05-16T10:25:24;102237.06;;;18.41;100.00
64354;BME280;50681;53.334;-6.536;2023-05-16T10:27:51;102215.28;;;18.50;100.00
64354;BME280;50681;53.334;-6.536;2023-05-16T10:30:17;102229.59;;;18.75;100.00
64354;BME280;50681;53.334;-6.536;2023-05-16T10:32:45;102234.03;;;18.57;100.00
64354;BME280;50681;53.334;-6.536;2023-05-16T10:35:10;102228.34;;;18.39;100.00
64354;BME280;50681;53.334;-6.536;2023-05-16T10:37:36;102237.38;;;18.68;100.00
64354;BME280;50681;53.334;-6.536;2023-05-16T10:40:02;102226.25;;;19.06;100.00
64354;BME280;50681;53.334;-6.536;2023-05-16T10:42:32;102218.00;;;19.20;100.00
64354;BME280;50681;53.334;-6.536;2023-05-16T10:45:18;102233.13;;;19.03;100.00
64354;BME280;50681;53.334;-6.536;2023-05-16T10:47:55;102225.03;;;18.56;100.00
64354;BME280;50681;53.334;-6.536;2023-05-16T10:53:21;102231.44;;;19.44;95.87
64354;BME280;50681;53.334;-6.536;2023-05-16T11:06:24;102225.13;;;18.51;100.00
64354;BME280;50681;53.334;-6.536;2023-05-16T11:11:45;102223.91;;;18.57;88.30
64354;BME280;50681;53.334;-6.536;2023-05-16T11:14:37;102209.72;;;19.11;86.95
64354;BME280;50681;53.334;-6.536;2023-05-16T11:24:58;102207.88;;;19.80;84.13
64354;BME280;50681;53.334;-6.536;2023-05-16T11:29:51;102206.47;;;20.05;87.47
64354;BME280;50681;53.334;-6.536;2023-05-16T11:32:20;102197.78;;;20.44;77.59
64354;BME280;50681;53.334;-6.536;2023-05-16T11:34:47;102194.09;;;20.17;83.23
64354;BME280;50681;53.334;-6.536;2023-05-16T11:37:13;102201.91;;;20.01;85.22
64354;BME280;50681;53.334;-6.536;2023-05-16T11:39:39;102197.28;;;19.87;89.38
64354;BME280;50681;53.334;-6.536;2023-05-16T11:42:05;102195.41;;;19.74;88.07
64354;BME280;50681;53.334;-6.536;2023-05-16T11:44:30;102190.28;;;19.35;86.52
64354;BME280;50681;53.334;-6.536;2023-05-16T11:46:56;102199.47;;;20.62;81.43
64354;BME280;50681;53.334;-6.536;2023-05-16T11:49:22;102180.19;;;21.03;79.18
64354;BME280;50681;53.334;-6.536;2023-05-16T11:51:47;102186.94;;;20.79;80.02
64354;BME280;50681;53.334;-6.536;2023-05-16T11:54:14;102190.09;;;20.23;80.52
64354;BME280;50681;53.334;-6.536;2023-05-16T11:56:40;102185.78;;;19.99;79.11
64354;BME280;50681;53.334;-6.536;2023-05-16T11:59:07;102194.78;;;20.00;76.88
64354;BME280;50681;53.334;-6.536;2023-05-16T12:01:33;102190.69;;;20.51;71.02
64354;BME280;50681;53.334;-6.536;2023-05-16T12:04:01;102188.41;;;20.94;68.91
64354;BME280;50681;53.334;-6.536;2023-05-16T12:06:28;102184.72;;;21.69;65.88
64354;BME280;50681;53.334;-6.536;2023-05-16T12:08:55;102193.75;;;21.78;65.12
64354;BME280;50681;53.334;-6.536;2023-05-16T12:11:22;102196.03;;;21.41;65.57
64354;BME280;50681;53.334;-6.536;2023-05-16T12:13:48;102196.97;;;21.01;68.55
64354;BME280;50681;53.334;-6.536;2023-05-16T12:16:13;102190.38;;;20.93;70.39
64354;BME280;50681;53.334;-6.536;2023-05-16T12:18:40;102179.53;;;21.41;68.68
64354;BME280;50681;53.334;-6.536;2023-05-16T12:21:06;102178.72;;;20.88;68.75
64354;BME280;50681;53.334;-6.536;2023-05-16T12:23:32;102179.06;;;21.12;67.62
64354;BME280;50681;53.334;-6.536;2023-05-16T12:25:58;102186.66;;;21.24;64.42
64354;BME280;50681;53.334;-6.536;2023-05-16T12:28:30;102190.84;;;21.30;66.79
64354;BME280;50681;53.334;-6.536;2023-05-16T12:30:58;102188.91;;;21.22;67.76
64354;BME280;50681;53.334;-6.536;2023-05-16T12:33:23;102179.88;;;21.66;66.00
64354;BME280;50681;53.334;-6.536;2023-05-16T12:36:00;102184.38;;;21.79;66.86
64354;BME280;50681;53.334;-6.536;2023-05-16T12:38:28;102191.19;;;21.29;65.65
64354;BME280;50681;53.334;-6.536;2023-05-16T12:40:56;102177.66;;;20.66;65.90
64354;BME280;50681;53.334;-6.536;2023-05-16T12:43:22;102186.00;;;21.27;67.33
64354;BME280;50681;53.334;-6.536;2023-05-16T12:45:55;102181.16;;;21.42;65.70
64354;BME280;50681;53.334;-6.536;2023-05-16T12:48:22;102182.16;;;21.37;64.00
64354;BME280;50681;53.334;-6.536;2023-05-16T12:50:48;102172.28;;;21.71;63.56
64354;BME280;50681;53.334;-6.536;2023-05-16T12:53:15;102172.44;;;22.23;62.59
64354;BME280;50681;53.334;-6.536;2023-05-16T12:55:41;102180.16;;;21.91;62.75
64354;BME280;50681;53.334;-6.536;2023-05-16T12:58:08;102168.41;;;21.64;62.96
64354;BME280;50681;53.334;-6.536;2023-05-16T13:00:34;102177.94;;;21.40;63.46
64354;BME280;50681;53.334;-6.536;2023-05-16T13:03:00;102168.41;;;21.37;62.90
64354;BME280;50681;53.334;-6.536;2023-05-16T13:05:26;102167.78;;;22.14;61.82
64354;BME280;50681;53.334;-6.536;2023-05-16T13:07:51;102177.88;;;22.01;60.41
64354;BME280;50681;53.334;-6.536;2023-05-16T13:10:17;102168.06;;;21.39;61.58